To NAV CANADA Home Page Login to a new session Search on AWWS site Feedback and Comments Disclaimer Vers la page française équivalente Tips FAQ What's new on the site To the Forecasts and Observations / NOTAM section To "File a Flight Plan" website Publications and other links Update of the User's profile FIC Telephone Numbers My Weather Data Folder Route Weather Data Regional Weather Data Local Weather Data To the Forecasts and Observations / NOTAM section
Request Generated 04/25/2014 at 01:06:04 UTC . Weather information available at that time is displayed.

METAR/TAF

SWIFT CURRENT/SK    (show WxCam)

METAR CYYN 250100Z AUTO 34014KT 9SM FEW075 11/M02 A2966 RMK SLP058
DENSITY ALT 3100FT=
SPECI CYYN 250053Z AUTO 35013G19KT 9SM FEW075 11/M02 A2965 RMK WSHFT
AT 0040Z SLP058 DENSITY ALT 3100FT=
METAR CYYN 250000Z AUTO 30014G19KT 9SM CLR 12/M05 A2965 RMK MAX WND
30020KT AT 2340Z SLP055 DENSITY ALT 3300FT=
METAR CYYN 242300Z AUTO 30017G22KT 9SM FEW075 12/M05 A2964 RMK MAX
WND 29020KT AT 2223Z SLP051 DENSITY ALT 3300FT=

TAF CYYN 242338Z 2500/2512 30018G28KT P6SM SCT070
BECMG 2500/2502 30010KT
BECMG 2502/2504 06008KT
FM250600 06008KT P6SM SCT060 PROB30 2506/2512 1/2SM FG VV002
RMK FCST BASED ON AUTO OBS. NXT FCST BY 250600Z=
Your time UTC time
Weather data provided by Environment Canada and NAV CANADA